sensor_id;sensor_type;location;lat;lon;timestamp;temperature;humidity
9151;DHT22;4610;50.006;7.490;2022-07-29T00:00:51;18.60;96.90
9151;DHT22;4610;50.006;7.490;2022-07-29T00:03:18;18.60;97.00
9151;DHT22;4610;50.006;7.490;2022-07-29T00:05:44;18.50;96.60
9151;DHT22;4610;50.006;7.490;2022-07-29T00:08:11;18.50;96.90
9151;DHT22;4610;50.006;7.490;2022-07-29T00:10:38;18.40;97.30
9151;DHT22;4610;50.006;7.490;2022-07-29T00:13:05;18.30;97.70
9151;DHT22;4610;50.006;7.490;2022-07-29T00:15:32;18.20;97.90
9151;DHT22;4610;50.006;7.490;2022-07-29T00:18:00;18.10;98.20
9151;DHT22;4610;50.006;7.490;2022-07-29T00:20:26;18.00;99.00
9151;DHT22;4610;50.006;7.490;2022-07-29T00:22:53;17.90;99.40
9151;DHT22;4610;50.006;7.490;2022-07-29T00:25:20;17.80;99.50
9151;DHT22;4610;50.006;7.490;2022-07-29T00:27:47;17.80;99.40
9151;DHT22;4610;50.006;7.490;2022-07-29T00:30:14;17.90;99.20
9151;DHT22;4610;50.006;7.490;2022-07-29T00:32:40;17.80;98.90
9151;DHT22;4610;50.006;7.490;2022-07-29T00:35:09;17.90;99.00
9151;DHT22;4610;50.006;7.490;2022-07-29T00:37:53;17.80;98.70
9151;DHT22;4610;50.006;7.490;2022-07-29T00:40:20;17.90;98.30
9151;DHT22;4610;50.006;7.490;2022-07-29T00:42:49;17.90;98.00
9151;DHT22;4610;50.006;7.490;2022-07-29T00:45:17;17.80;98.60
9151;DHT22;4610;50.006;7.490;2022-07-29T00:47:44;18.00;97.80
9151;DHT22;4610;50.006;7.490;2022-07-29T00:50:12;18.10;97.20
9151;DHT22;4610;50.006;7.490;2022-07-29T00:52:40;18.10;97.60
9151;DHT22;4610;50.006;7.490;2022-07-29T00:55:09;18.00;98.10
9151;DHT22;4610;50.006;7.490;2022-07-29T00:57:36;17.90;98.70
9151;DHT22;4610;50.006;7.490;2022-07-29T01:00:04;17.90;98.80
9151;DHT22;4610;50.006;7.490;2022-07-29T01:02:32;17.70;98.40
9151;DHT22;4610;50.006;7.490;2022-07-29T01:04:59;17.40;99.10
9151;DHT22;4610;50.006;7.490;2022-07-29T01:07:27;17.60;98.60
9151;DHT22;4610;50.006;7.490;2022-07-29T01:09:56;17.50;98.90
9151;DHT22;4610;50.006;7.490;2022-07-29T01:12:25;17.40;98.90
9151;DHT22;4610;50.006;7.490;2022-07-29T01:14:54;17.50;99.00
9151;DHT22;4610;50.006;7.490;2022-07-29T01:17:26;17.40;98.60
9151;DHT22;4610;50.006;7.490;2022-07-29T01:19:57;17.40;98.50
9151;DHT22;4610;50.006;7.490;2022-07-29T01:22:31;17.40;98.20
9151;DHT22;4610;50.006;7.490;2022-07-29T01:25:17;17.30;98.20
9151;DHT22;4610;50.006;7.490;2022-07-29T01:28:01;17.20;98.10
9151;DHT22;4610;50.006;7.490;2022-07-29T01:30:36;17.10;98.30
9151;DHT22;4610;50.006;7.490;2022-07-29T01:33:09;17.10;98.60
9151;DHT22;4610;50.006;7.490;2022-07-29T01:35:39;17.10;98.70
9151;DHT22;4610;50.006;7.490;2022-07-29T01:38:09;17.00;98.80
9151;DHT22;4610;50.006;7.490;2022-07-29T01:40:42;16.90;98.90
9151;DHT22;4610;50.006;7.490;2022-07-29T01:43:14;16.80;99.00
9151;DHT22;4610;50.006;7.490;2022-07-29T01:45:46;16.80;99.00
9151;DHT22;4610;50.006;7.490;2022-07-29T01:48:18;16.80;99.00
9151;DHT22;4610;50.006;7.490;2022-07-29T01:50:48;16.80;99.10
9151;DHT22;4610;50.006;7.490;2022-07-29T01:53:21;16.80;99.10
9151;DHT22;4610;50.006;7.490;2022-07-29T01:55:48;16.80;99.10
9151;DHT22;4610;50.006;7.490;2022-07-29T01:58:17;16.70;99.60
9151;DHT22;4610;50.006;7.490;2022-07-29T02:00:48;16.40;99.90
9151;DHT22;4610;50.006;7.490;2022-07-29T02:03:17;16.20;99.90
9151;DHT22;4610;50.006;7.490;2022-07-29T02:08:15;15.70;99.90
9151;DHT22;4610;50.006;7.490;2022-07-29T02:10:43;15.60;99.90
9151;DHT22;4610;50.006;7.490;2022-07-29T02:13:11;15.60;99.90
9151;DHT22;4610;50.006;7.490;2022-07-29T02:15:41;15.70;99.90
9151;DHT22;4610;50.006;7.490;2022-07-29T02:18:14;15.80;99.90
9151;DHT22;4610;50.006;7.490;2022-07-29T02:20:42;15.90;99.90
9151;DHT22;4610;50.006;7.490;2022-07-29T02:23:12;15.90;99.90
9151;DHT22;4610;50.006;7.490;2022-07-29T02:25:41;15.80;99.90
9151;DHT22;4610;50.006;7.490;2022-07-29T02:28:08;15.60;99.90
9151;DHT22;4610;50.006;7.490;2022-07-29T02:30:39;15.60;99.90
9151;DHT22;4610;50.006;7.490;2022-07-29T02:33:09;15.60;99.90
9151;DHT22;4610;50.006;7.490;2022-07-29T02:35:40;15.40;99.90
9151;DHT22;4610;50.006;7.490;2022-07-29T02:38:09;15.20;99.90
9151;DHT22;4610;50.006;7.490;2022-07-29T02:40:55;15.10;99.90
9151;DHT22;4610;50.006;7.490;2022-07-29T02:43:22;14.90;99.90
9151;DHT22;4610;50.006;7.490;2022-07-29T02:45:52;14.80;99.90
9151;DHT22;4610;50.006;7.490;2022-07-29T02:48:24;14.80;99.90
9151;DHT22;4610;50.006;7.490;2022-07-29T02:51:01;14.70;99.90
9151;DHT22;4610;50.006;7.490;2022-07-29T02:53:33;14.60;99.90
9151;DHT22;4610;50.006;7.490;2022-07-29T02:56:06;14.60;99.90
9151;DHT22;4610;50.006;7.490;2022-07-29T02:58:37;14.50;99.90
9151;DHT22;4610;50.006;7.490;2022-07-29T03:01:14;14.40;99.90
9151;DHT22;4610;50.006;7.490;2022-07-29T03:03:45;14.20;99.90
9151;DHT22;4610;50.006;7.490;2022-07-29T03:06:15;14.20;99.90
9151;DHT22;4610;50.006;7.490;2022-07-29T03:08:42;14.00;99.90
9151;DHT22;4610;50.006;7.490;2022-07-29T03:11:10;14.00;99.90
9151;DHT22;4610;50.006;7.490;2022-07-29T03:13:38;13.90;99.90
9151;DHT22;4610;50.006;7.490;2022-07-29T03:16:05;13.70;99.90
9151;DHT22;4610;50.006;7.490;2022-07-29T03:18:33;13.70;99.90
9151;DHT22;4610;50.006;7.490;2022-07-29T03:21:02;13.70;99.90
9151;DHT22;4610;50.006;7.490;2022-07-29T03:23:29;13.60;99.90
9151;DHT22;4610;50.006;7.490;2022-07-29T03:25:56;13.70;99.90
9151;DHT22;4610;50.006;7.490;2022-07-29T03:28:23;13.70;99.90
9151;DHT22;4610;50.006;7.490;2022-07-29T03:30:50;13.80;99.90
9151;DHT22;4610;50.006;7.490;2022-07-29T03:33:16;13.70;99.90
9151;DHT22;4610;50.006;7.490;2022-07-29T03:35:43;13.60;99.90
9151;DHT22;4610;50.006;7.490;2022-07-29T03:38:11;13.60;99.90
9151;DHT22;4610;50.006;7.490;2022-07-29T03:40:42;13.50;99.90
9151;DHT22;4610;50.006;7.490;2022-07-29T03:43:11;13.50;99.90
9151;DHT22;4610;50.006;7.490;2022-07-29T03:45:42;13.60;99.90
9151;DHT22;4610;50.006;7.490;2022-07-29T03:48:12;13.70;99.90
9151;DHT22;4610;50.006;7.490;2022-07-29T03:50:40;13.80;99.90
9151;DHT22;4610;50.006;7.490;2022-07-29T03:53:07;13.80;99.90
9151;DHT22;4610;50.006;7.490;2022-07-29T03:55:41;13.70;99.90
9151;DHT22;4610;50.006;7.490;2022-07-29T03:58:10;13.60;99.90
9151;DHT22;4610;50.006;7.490;2022-07-29T04:00:37;13.60;99.90
9151;DHT22;4610;50.006;7.490;2022-07-29T04:03:04;13.50;99.90
9151;DHT22;4610;50.006;7.490;2022-07-29T04:05:31;13.50;99.90
9151;DHT22;4610;50.006;7.490;2022-07-29T04:07:58;13.50;99.90
9151;DHT22;4610;50.006;7.490;2022-07-29T04:10:25;13.50;99.90
9151;DHT22;4610;50.006;7.490;2022-07-29T04:12:53;13.50;99.90
9151;DHT22;4610;50.006;7.490;2022-07-29T04:15:20;13.40;99.90
9151;DHT22;4610;50.006;7.490;2022-07-29T04:17:47;13.40;99.90
9151;DHT22;4610;50.006;7.490;2022-07-29T04:20:13;13.40;99.90
9151;DHT22;4610;50.006;7.490;2022-07-29T04:22:41;13.40;99.90
9151;DHT22;4610;50.006;7.490;2022-07-29T04:25:08;13.50;99.90
9151;DHT22;4610;50.006;7.490;2022-07-29T04:27:35;13.50;99.90
9151;DHT22;4610;50.006;7.490;2022-07-29T04:30:23;13.60;99.90
9151;DHT22;4610;50.006;7.490;2022-07-29T04:32:50;13.70;99.90
9151;DHT22;4610;50.006;7.490;2022-07-29T04:35:17;13.80;99.90
9151;DHT22;4610;50.006;7.490;2022-07-29T04:37:43;14.00;99.90
9151;DHT22;4610;50.006;7.490;2022-07-29T04:40:11;14.20;99.90
9151;DHT22;4610;50.006;7.490;2022-07-29T04:42:38;14.50;99.90
9151;DHT22;4610;50.006;7.490;2022-07-29T04:45:06;15.20;99.90
9151;DHT22;4610;50.006;7.490;2022-07-29T04:47:34;15.20;99.90
9151;DHT22;4610;50.006;7.490;2022-07-29T04:50:01;15.50;99.90
9151;DHT22;4610;50.006;7.490;2022-07-29T04:52:28;15.60;99.90
9151;DHT22;4610;50.006;7.490;2022-07-29T04:54:55;15.70;99.90
9151;DHT22;4610;50.006;7.490;2022-07-29T04:57:21;15.70;99.90
9151;DHT22;4610;50.006;7.490;2022-07-29T04:59:48;16.00;99.90
9151;DHT22;4610;50.006;7.490;2022-07-29T05:02:15;16.40;99.90
9151;DHT22;4610;50.006;7.490;2022-07-29T05:04:43;17.00;99.90
9151;DHT22;4610;50.006;7.490;2022-07-29T05:07:10;17.50;99.90
9151;DHT22;4610;50.006;7.490;2022-07-29T05:09:37;17.50;99.90
9151;DHT22;4610;50.006;7.490;2022-07-29T05:12:04;17.40;99.90
9151;DHT22;4610;50.006;7.490;2022-07-29T05:14:31;17.30;99.90
9151;DHT22;4610;50.006;7.490;2022-07-29T05:16:58;17.20;99.90
9151;DHT22;4610;50.006;7.490;2022-07-29T05:19:25;17.30;99.90
9151;DHT22;4610;50.006;7.490;2022-07-29T05:21:53;17.20;99.90
9151;DHT22;4610;50.006;7.490;2022-07-29T05:24:20;17.10;99.90
9151;DHT22;4610;50.006;7.490;2022-07-29T05:26:46;17.00;99.90
9151;DHT22;4610;50.006;7.490;2022-07-29T05:29:13;16.80;99.90
9151;DHT22;4610;50.006;7.490;2022-07-29T05:31:40;16.70;99.90
9151;DHT22;4610;50.006;7.490;2022-07-29T05:34:07;16.60;99.90
9151;DHT22;4610;50.006;7.490;2022-07-29T05:36:33;16.70;99.90
9151;DHT22;4610;50.006;7.490;2022-07-29T05:39:01;16.80;99.90
9151;DHT22;4610;50.006;7.490;2022-07-29T05:41:31;16.70;99.90
9151;DHT22;4610;50.006;7.490;2022-07-29T05:43:59;17.10;99.90
9151;DHT22;4610;50.006;7.490;2022-07-29T05:46:26;17.10;99.90
9151;DHT22;4610;50.006;7.490;2022-07-29T05:48:52;17.10;99.90
9151;DHT22;4610;50.006;7.490;2022-07-29T05:51:19;17.10;99.90
9151;DHT22;4610;50.006;7.490;2022-07-29T05:53:46;17.10;99.90
9151;DHT22;4610;50.006;7.490;2022-07-29T05:56:14;17.10;99.90
9151;DHT22;4610;50.006;7.490;2022-07-29T05:58:41;18.00;99.90
9151;DHT22;4610;50.006;7.490;2022-07-29T06:01:08;18.30;99.90
9151;DHT22;4610;50.006;7.490;2022-07-29T06:03:35;18.20;99.90
9151;DHT22;4610;50.006;7.490;2022-07-29T06:06:03;18.00;99.90
9151;DHT22;4610;50.006;7.490;2022-07-29T06:08:31;17.90;99.90
9151;DHT22;4610;50.006;7.490;2022-07-29T06:10:59;17.80;99.90
9151;DHT22;4610;50.006;7.490;2022-07-29T06:13:27;17.70;99.90
9151;DHT22;4610;50.006;7.490;2022-07-29T06:15:54;17.70;99.90
9151;DHT22;4610;50.006;7.490;2022-07-29T06:18:21;17.60;99.90
9151;DHT22;4610;50.006;7.490;2022-07-29T06:20:49;17.60;99.90
9151;DHT22;4610;50.006;7.490;2022-07-29T06:23:16;17.70;99.90
9151;DHT22;4610;50.006;7.490;2022-07-29T06:25:42;17.90;99.90
9151;DHT22;4610;50.006;7.490;2022-07-29T06:28:09;18.10;99.90
9151;DHT22;4610;50.006;7.490;2022-07-29T06:30:38;18.10;99.90
9151;DHT22;4610;50.006;7.490;2022-07-29T06:33:05;18.30;99.90
9151;DHT22;4610;50.006;7.490;2022-07-29T06:35:33;18.40;99.90
9151;DHT22;4610;50.006;7.490;2022-07-29T06:38:01;18.60;99.90
9151;DHT22;4610;50.006;7.490;2022-07-29T06:40:28;18.70;99.90
9151;DHT22;4610;50.006;7.490;2022-07-29T06:43:12;18.70;99.90
9151;DHT22;4610;50.006;7.490;2022-07-29T06:45:40;18.70;99.90
9151;DHT22;4610;50.006;7.490;2022-07-29T06:48:08;18.90;99.90
9151;DHT22;4610;50.006;7.490;2022-07-29T06:50:35;19.30;99.90
9151;DHT22;4610;50.006;7.490;2022-07-29T06:53:02;19.70;99.90
9151;DHT22;4610;50.006;7.490;2022-07-29T06:55:28;20.20;99.90
9151;DHT22;4610;50.006;7.490;2022-07-29T06:57:55;21.10;99.90
9151;DHT22;4610;50.006;7.490;2022-07-29T07:00:22;22.20;99.90
9151;DHT22;4610;50.006;7.490;2022-07-29T07:02:50;22.90;98.00
9151;DHT22;4610;50.006;7.490;2022-07-29T07:05:17;23.10;97.30
9151;DHT22;4610;50.006;7.490;2022-07-29T07:07:43;23.80;96.50
9151;DHT22;4610;50.006;7.490;2022-07-29T07:10:10;25.10;94.30
9151;DHT22;4610;50.006;7.490;2022-07-29T07:12:37;25.90;92.70
9151;DHT22;4610;50.006;7.490;2022-07-29T07:15:05;26.60;92.00
9151;DHT22;4610;50.006;7.490;2022-07-29T07:17:32;27.20;91.20
9151;DHT22;4610;50.006;7.490;2022-07-29T07:20:00;27.50;90.20
9151;DHT22;4610;50.006;7.490;2022-07-29T07:22:27;27.40;90.50
9151;DHT22;4610;50.006;7.490;2022-07-29T07:24:53;27.80;89.50
9151;DHT22;4610;50.006;7.490;2022-07-29T07:27:20;28.20;89.10
9151;DHT22;4610;50.006;7.490;2022-07-29T07:29:47;28.40;85.20
9151;DHT22;4610;50.006;7.490;2022-07-29T07:32:14;28.50;85.00
9151;DHT22;4610;50.006;7.490;2022-07-29T07:34:41;28.00;84.70
9151;DHT22;4610;50.006;7.490;2022-07-29T07:37:10;27.50;85.30
9151;DHT22;4610;50.006;7.490;2022-07-29T07:39:36;27.30;85.80
9151;DHT22;4610;50.006;7.490;2022-07-29T07:42:03;26.90;85.40
9151;DHT22;4610;50.006;7.490;2022-07-29T07:44:30;26.30;86.30
9151;DHT22;4610;50.006;7.490;2022-07-29T07:46:57;26.50;87.00
9151;DHT22;4610;50.006;7.490;2022-07-29T07:49:23;27.40;85.50
9151;DHT22;4610;50.006;7.490;2022-07-29T07:51:50;28.40;83.80
9151;DHT22;4610;50.006;7.490;2022-07-29T07:54:19;28.70;83.60
9151;DHT22;4610;50.006;7.490;2022-07-29T07:56:46;28.70;83.80
9151;DHT22;4610;50.006;7.490;2022-07-29T07:59:14;28.80;81.90
9151;DHT22;4610;50.006;7.490;2022-07-29T08:01:41;28.50;82.30
9151;DHT22;4610;50.006;7.490;2022-07-29T08:04:08;28.60;81.80
9151;DHT22;4610;50.006;7.490;2022-07-29T08:06:35;28.70;81.80
9151;DHT22;4610;50.006;7.490;2022-07-29T08:09:03;28.80;82.30
9151;DHT22;4610;50.006;7.490;2022-07-29T08:11:31;29.20;81.40
9151;DHT22;4610;50.006;7.490;2022-07-29T08:13:58;29.10;80.60
9151;DHT22;4610;50.006;7.490;2022-07-29T08:16:26;29.50;80.10
9151;DHT22;4610;50.006;7.490;2022-07-29T08:18:54;29.70;79.60
9151;DHT22;4610;50.006;7.490;2022-07-29T08:21:23;30.00;79.80
9151;DHT22;4610;50.006;7.490;2022-07-29T08:23:50;30.50;78.80
9151;DHT22;4610;50.006;7.490;2022-07-29T08:26:19;31.00;78.20
9151;DHT22;4610;50.006;7.490;2022-07-29T08:28:49;31.50;77.70
9151;DHT22;4610;50.006;7.490;2022-07-29T08:31:16;31.60;77.00
9151;DHT22;4610;50.006;7.490;2022-07-29T08:33:43;31.80;77.70
9151;DHT22;4610;50.006;7.490;2022-07-29T08:36:10;32.10;77.90
9151;DHT22;4610;50.006;7.490;2022-07-29T08:38:38;32.50;76.90
9151;DHT22;4610;50.006;7.490;2022-07-29T08:41:05;31.90;77.20
9151;DHT22;4610;50.006;7.490;2022-07-29T08:43:32;30.90;78.50
9151;DHT22;4610;50.006;7.490;2022-07-29T08:46:04;30.10;80.30
9151;DHT22;4610;50.006;7.490;2022-07-29T08:48:31;30.00;79.80
9151;DHT22;4610;50.006;7.490;2022-07-29T08:50:58;29.60;77.00
9151;DHT22;4610;50.006;7.490;2022-07-29T08:53:26;31.50;76.60
9151;DHT22;4610;50.006;7.490;2022-07-29T08:55:55;32.00;77.70
9151;DHT22;4610;50.006;7.490;2022-07-29T08:58:22;32.30;78.50
9151;DHT22;4610;50.006;7.490;2022-07-29T09:00:51;32.20;75.80
9151;DHT22;4610;50.006;7.490;2022-07-29T09:03:22;32.40;78.10
9151;DHT22;4610;50.006;7.490;2022-07-29T09:05:49;32.60;75.00
9151;DHT22;4610;50.006;7.490;2022-07-29T09:08:17;32.70;75.00
9151;DHT22;4610;50.006;7.490;2022-07-29T09:10:44;32.80;76.20
9151;DHT22;4610;50.006;7.490;2022-07-29T09:13:11;32.90;78.80
9151;DHT22;4610;50.006;7.490;2022-07-29T09:15:37;33.10;74.70
9151;DHT22;4610;50.006;7.490;2022-07-29T09:18:04;33.00;75.30
9151;DHT22;4610;50.006;7.490;2022-07-29T09:20:32;33.10;75.40
9151;DHT22;4610;50.006;7.490;2022-07-29T09:23:13;33.20;75.10
9151;DHT22;4610;50.006;7.490;2022-07-29T09:25:41;33.30;73.90
9151;DHT22;4610;50.006;7.490;2022-07-29T09:28:08;33.20;72.80
9151;DHT22;4610;50.006;7.490;2022-07-29T09:30:36;33.40;74.50
9151;DHT22;4610;50.006;7.490;2022-07-29T09:33:05;33.40;74.70
9151;DHT22;4610;50.006;7.490;2022-07-29T09:35:33;33.20;74.20
9151;DHT22;4610;50.006;7.490;2022-07-29T09:38:10;33.40;72.60
9151;DHT22;4610;50.006;7.490;2022-07-29T09:40:37;33.80;72.00
9151;DHT22;4610;50.006;7.490;2022-07-29T09:43:10;33.20;71.80
9151;DHT22;4610;50.006;7.490;2022-07-29T09:45:37;32.70;72.40
9151;DHT22;4610;50.006;7.490;2022-07-29T09:48:13;32.30;72.30
9151;DHT22;4610;50.006;7.490;2022-07-29T09:50:42;32.30;72.50
9151;DHT22;4610;50.006;7.490;2022-07-29T09:53:10;32.80;72.30
9151;DHT22;4610;50.006;7.490;2022-07-29T09:55:48;33.50;71.20
9151;DHT22;4610;50.006;7.490;2022-07-29T09:58:16;33.50;72.40
9151;DHT22;4610;50.006;7.490;2022-07-29T10:00:44;33.40;70.30
9151;DHT22;4610;50.006;7.490;2022-07-29T10:03:12;32.70;71.40
9151;DHT22;4610;50.006;7.490;2022-07-29T10:05:39;32.70;71.00
9151;DHT22;4610;50.006;7.490;2022-07-29T10:08:09;33.10;71.50
9151;DHT22;4610;50.006;7.490;2022-07-29T10:10:39;33.40;70.90
9151;DHT22;4610;50.006;7.490;2022-07-29T10:13:08;33.00;70.00
9151;DHT22;4610;50.006;7.490;2022-07-29T10:15:37;32.70;71.40
9151;DHT22;4610;50.006;7.490;2022-07-29T10:18:07;32.20;71.90
9151;DHT22;4610;50.006;7.490;2022-07-29T10:20:34;31.80;71.30
9151;DHT22;4610;50.006;7.490;2022-07-29T10:23:01;31.50;76.10
9151;DHT22;4610;50.006;7.490;2022-07-29T10:25:30;31.20;72.60
9151;DHT22;4610;50.006;7.490;2022-07-29T10:27:58;30.90;73.50
9151;DHT22;4610;50.006;7.490;2022-07-29T10:30:26;30.80;72.90
9151;DHT22;4610;50.006;7.490;2022-07-29T10:33:04;30.50;73.10
9151;DHT22;4610;50.006;7.490;2022-07-29T10:35:44;30.30;74.20
9151;DHT22;4610;50.006;7.490;2022-07-29T10:38:30;30.50;74.40
9151;DHT22;4610;50.006;7.490;2022-07-29T10:41:29;30.80;74.40
9151;DHT22;4610;50.006;7.490;2022-07-29T10:44:02;31.30;75.90
9151;DHT22;4610;50.006;7.490;2022-07-29T10:46:35;31.80;74.10
9151;DHT22;4610;50.006;7.490;2022-07-29T10:49:09;32.30;73.10
9151;DHT22;4610;50.006;7.490;2022-07-29T10:52:04;32.20;71.90
9151;DHT22;4610;50.006;7.490;2022-07-29T10:54:42;31.90;72.50
9151;DHT22;4610;50.006;7.490;2022-07-29T10:57:24;31.50;73.30
9151;DHT22;4610;50.006;7.490;2022-07-29T11:00:25;31.70;73.00
9151;DHT22;4610;50.006;7.490;2022-07-29T11:02:52;31.40;73.00
9151;DHT22;4610;50.006;7.490;2022-07-29T11:05:21;31.00;73.70
9151;DHT22;4610;50.006;7.490;2022-07-29T11:08:21;30.80;73.60
9151;DHT22;4610;50.006;7.490;2022-07-29T11:10:50;30.40;73.80
9151;DHT22;4610;50.006;7.490;2022-07-29T11:13:46;30.30;75.90
9151;DHT22;4610;50.006;7.490;2022-07-29T11:16:13;30.40;77.50
9151;DHT22;4610;50.006;7.490;2022-07-29T11:21:41;30.60;74.10
9151;DHT22;4610;50.006;7.490;2022-07-29T11:24:12;30.80;73.90
9151;DHT22;4610;50.006;7.490;2022-07-29T11:26:39;30.40;77.00
9151;DHT22;4610;50.006;7.490;2022-07-29T11:29:17;29.90;76.00
9151;DHT22;4610;50.006;7.490;2022-07-29T11:31:46;30.20;75.40
9151;DHT22;4610;50.006;7.490;2022-07-29T11:34:22;30.40;75.80
9151;DHT22;4610;50.006;7.490;2022-07-29T11:37:18;30.40;76.30
9151;DHT22;4610;50.006;7.490;2022-07-29T11:39:47;30.20;74.10
9151;DHT22;4610;50.006;7.490;2022-07-29T11:42:37;30.30;74.50
9151;DHT22;4610;50.006;7.490;2022-07-29T11:45:07;30.20;74.40
9151;DHT22;4610;50.006;7.490;2022-07-29T11:47:36;30.10;74.10
9151;DHT22;4610;50.006;7.490;2022-07-29T11:50:05;30.30;74.20
9151;DHT22;4610;50.006;7.490;2022-07-29T11:52:33;30.50;73.80
9151;DHT22;4610;50.006;7.490;2022-07-29T11:55:05;30.60;73.70
9151;DHT22;4610;50.006;7.490;2022-07-29T11:57:33;30.80;74.40
9151;DHT22;4610;50.006;7.490;2022-07-29T12:00:01;31.00;74.50
9151;DHT22;4610;50.006;7.490;2022-07-29T12:02:39;30.90;73.70
9151;DHT22;4610;50.006;7.490;2022-07-29T12:05:08;30.80;73.20
9151;DHT22;4610;50.006;7.490;2022-07-29T12:07:36;30.70;73.70
9151;DHT22;4610;50.006;7.490;2022-07-29T12:10:04;30.60;73.60
9151;DHT22;4610;50.006;7.490;2022-07-29T12:12:31;30.40;74.10
9151;DHT22;4610;50.006;7.490;2022-07-29T12:14:58;30.20;77.30
9151;DHT22;4610;50.006;7.490;2022-07-29T12:17:26;29.80;77.90
9151;DHT22;4610;50.006;7.490;2022-07-29T12:19:55;29.80;74.80
9151;DHT22;4610;50.006;7.490;2022-07-29T12:24:53;29.90;73.30
9151;DHT22;4610;50.006;7.490;2022-07-29T12:27:19;29.80;73.80
9151;DHT22;4610;50.006;7.490;2022-07-29T12:29:55;29.80;73.50
9151;DHT22;4610;50.006;7.490;2022-07-29T12:32:22;29.50;74.60
9151;DHT22;4610;50.006;7.490;2022-07-29T12:34:50;29.60;74.10
9151;DHT22;4610;50.006;7.490;2022-07-29T12:37:18;29.60;74.60
9151;DHT22;4610;50.006;7.490;2022-07-29T12:39:45;29.80;75.00
9151;DHT22;4610;50.006;7.490;2022-07-29T12:42:12;29.90;74.20
9151;DHT22;4610;50.006;7.490;2022-07-29T12:44:46;30.00;75.20
9151;DHT22;4610;50.006;7.490;2022-07-29T12:47:13;29.90;75.70
9151;DHT22;4610;50.006;7.490;2022-07-29T12:49:40;29.90;74.60
9151;DHT22;4610;50.006;7.490;2022-07-29T12:52:29;29.90;74.30
9151;DHT22;4610;50.006;7.490;2022-07-29T12:54:56;28.90;72.90
9151;DHT22;4610;50.006;7.490;2022-07-29T12:57:23;29.80;74.10
9151;DHT22;4610;50.006;7.490;2022-07-29T13:00:01;29.80;73.60
9151;DHT22;4610;50.006;7.490;2022-07-29T13:02:28;29.70;74.30
9151;DHT22;4610;50.006;7.490;2022-07-29T13:04:55;29.80;73.70
9151;DHT22;4610;50.006;7.490;2022-07-29T13:07:24;29.80;74.30
9151;DHT22;4610;50.006;7.490;2022-07-29T13:09:53;29.80;74.50
9151;DHT22;4610;50.006;7.490;2022-07-29T13:12:20;29.80;74.50
9151;DHT22;4610;50.006;7.490;2022-07-29T13:14:48;29.80;73.50
9151;DHT22;4610;50.006;7.490;2022-07-29T13:17:16;29.80;74.00
9151;DHT22;4610;50.006;7.490;2022-07-29T13:19:45;29.70;74.80
9151;DHT22;4610;50.006;7.490;2022-07-29T13:22:13;29.70;74.90
9151;DHT22;4610;50.006;7.490;2022-07-29T13:24:51;29.80;74.90
9151;DHT22;4610;50.006;7.490;2022-07-29T13:27:20;29.90;74.40
9151;DHT22;4610;50.006;7.490;2022-07-29T13:29:48;29.90;74.50
9151;DHT22;4610;50.006;7.490;2022-07-29T13:32:17;29.80;74.30
9151;DHT22;4610;50.006;7.490;2022-07-29T13:34:43;29.80;74.90
9151;DHT22;4610;50.006;7.490;2022-07-29T13:37:10;29.70;74.70
9151;DHT22;4610;50.006;7.490;2022-07-29T13:39:37;29.60;75.20
9151;DHT22;4610;50.006;7.490;2022-07-29T13:42:04;29.40;75.10
9151;DHT22;4610;50.006;7.490;2022-07-29T13:44:34;29.40;75.90
9151;DHT22;4610;50.006;7.490;2022-07-29T13:47:00;29.50;75.30
9151;DHT22;4610;50.006;7.490;2022-07-29T13:49:27;29.60;75.80
9151;DHT22;4610;50.006;7.490;2022-07-29T13:51:54;29.60;75.00
9151;DHT22;4610;50.006;7.490;2022-07-29T13:54:21;29.70;74.80
9151;DHT22;4610;50.006;7.490;2022-07-29T13:56:47;29.60;74.50
9151;DHT22;4610;50.006;7.490;2022-07-29T13:59:14;29.60;74.30
9151;DHT22;4610;50.006;7.490;2022-07-29T14:01:42;29.60;73.90
9151;DHT22;4610;50.006;7.490;2022-07-29T14:04:10;29.60;74.20
9151;DHT22;4610;50.006;7.490;2022-07-29T14:06:36;29.60;74.30
9151;DHT22;4610;50.006;7.490;2022-07-29T14:09:04;29.70;74.50
9151;DHT22;4610;50.006;7.490;2022-07-29T14:11:34;29.80;75.00
9151;DHT22;4610;50.006;7.490;2022-07-29T14:14:01;29.90;74.70
9151;DHT22;4610;50.006;7.490;2022-07-29T14:16:27;29.90;74.50
9151;DHT22;4610;50.006;7.490;2022-07-29T14:18:55;29.80;73.80
9151;DHT22;4610;50.006;7.490;2022-07-29T14:21:22;29.80;74.00
9151;DHT22;4610;50.006;7.490;2022-07-29T14:23:49;30.00;74.60
9151;DHT22;4610;50.006;7.490;2022-07-29T14:26:17;30.10;73.40
9151;DHT22;4610;50.006;7.490;2022-07-29T14:28:44;30.10;73.30
9151;DHT22;4610;50.006;7.490;2022-07-29T14:31:10;30.10;73.80
9151;DHT22;4610;50.006;7.490;2022-07-29T14:33:38;29.80;73.70
9151;DHT22;4610;50.006;7.490;2022-07-29T14:36:06;29.80;73.90
9151;DHT22;4610;50.006;7.490;2022-07-29T14:38:33;29.60;74.60
9151;DHT22;4610;50.006;7.490;2022-07-29T14:41:00;29.20;75.00
9151;DHT22;4610;50.006;7.490;2022-07-29T14:43:27;29.10;73.80
9151;DHT22;4610;50.006;7.490;2022-07-29T14:45:54;28.90;74.20
9151;DHT22;4610;50.006;7.490;2022-07-29T14:48:21;28.90;75.10
9151;DHT22;4610;50.006;7.490;2022-07-29T14:50:47;28.80;74.90
9151;DHT22;4610;50.006;7.490;2022-07-29T14:53:15;28.80;74.70
9151;DHT22;4610;50.006;7.490;2022-07-29T14:55:42;28.80;74.30
9151;DHT22;4610;50.006;7.490;2022-07-29T14:58:10;28.80;75.30
9151;DHT22;4610;50.006;7.490;2022-07-29T15:00:37;28.60;75.60
9151;DHT22;4610;50.006;7.490;2022-07-29T15:03:04;28.50;75.60
9151;DHT22;4610;50.006;7.490;2022-07-29T15:05:31;28.40;76.30
9151;DHT22;4610;50.006;7.490;2022-07-29T15:07:58;28.40;75.80
9151;DHT22;4610;50.006;7.490;2022-07-29T15:10:26;28.30;75.60
9151;DHT22;4610;50.006;7.490;2022-07-29T15:12:53;28.40;76.10
9151;DHT22;4610;50.006;7.490;2022-07-29T15:15:20;28.70;77.40
9151;DHT22;4610;50.006;7.490;2022-07-29T15:17:47;28.30;79.00
9151;DHT22;4610;50.006;7.490;2022-07-29T15:20:14;28.30;78.10
9151;DHT22;4610;50.006;7.490;2022-07-29T15:22:41;28.20;77.70
9151;DHT22;4610;50.006;7.490;2022-07-29T15:25:08;27.90;78.40
9151;DHT22;4610;50.006;7.490;2022-07-29T15:27:37;27.90;77.80
9151;DHT22;4610;50.006;7.490;2022-07-29T15:30:04;27.90;78.30
9151;DHT22;4610;50.006;7.490;2022-07-29T15:32:31;27.80;79.20
9151;DHT22;4610;50.006;7.490;2022-07-29T15:34:58;26.70;81.90
9151;DHT22;4610;50.006;7.490;2022-07-29T15:37:24;27.50;83.10
9151;DHT22;4610;50.006;7.490;2022-07-29T15:39:53;27.30;85.70
9151;DHT22;4610;50.006;7.490;2022-07-29T15:42:20;27.20;85.70
9151;DHT22;4610;50.006;7.490;2022-07-29T15:44:48;26.90;82.20
9151;DHT22;4610;50.006;7.490;2022-07-29T15:47:15;26.20;91.90
9151;DHT22;4610;50.006;7.490;2022-07-29T15:49:42;25.10;96.40
9151;DHT22;4610;50.006;7.490;2022-07-29T15:52:09;24.00;99.90
9151;DHT22;4610;50.006;7.490;2022-07-29T15:54:38;23.40;99.90
9151;DHT22;4610;50.006;7.490;2022-07-29T15:57:06;23.20;99.90
9151;DHT22;4610;50.006;7.490;2022-07-29T15:59:33;21.40;99.90
9151;DHT22;4610;50.006;7.490;2022-07-29T16:02:02;23.10;99.90
9151;DHT22;4610;50.006;7.490;2022-07-29T16:04:29;23.10;99.90
9151;DHT22;4610;50.006;7.490;2022-07-29T16:06:56;23.10;99.90
9151;DHT22;4610;50.006;7.490;2022-07-29T16:09:23;23.30;99.90
9151;DHT22;4610;50.006;7.490;2022-07-29T16:11:50;23.40;99.90
9151;DHT22;4610;50.006;7.490;2022-07-29T16:14:18;23.50;99.90
9151;DHT22;4610;50.006;7.490;2022-07-29T16:16:45;23.50;99.90
9151;DHT22;4610;50.006;7.490;2022-07-29T16:19:14;23.40;99.90
9151;DHT22;4610;50.006;7.490;2022-07-29T16:21:41;23.20;99.90